Terminal Aerodrome Forecast
Issued by NWS Lake Charles, LA

Home | Current Version | Previous Version | Text Only | Print | Product List | Glossary On
Versions: 1 2 3 4 5 6 7 8 9 10 11 12
000
FTUS44 KLCH 262300
TAFLCH
TAF
KLCH 262320Z 2700/2724 27008KT P6SM SKC
     FM270800 34008KT P6SM SKC
     FM271500 03011G19KT P6SM SKC=

USA.gov is the U.S. government's official web portal to all federal, state and local government web resources and services.